Esquel, Argentina
Current Conditions -  °F | °C
As of 2:00 PM on Friday 24 Oct 2014 (Local Time) from SCFT Reporting Station
Clear Clear  
Wind Chill: 21°   Ceiling: Unl
Heat Index: 21°   Visibility: 6mi
Dew Point:   Wind: 5mph
Humidity: 33%   Direction: 280°W
Pressure: 30.06"   Gusts: NA
Location:  42.91°S, 71.32°W
Report Text: SCFT 241700Z 28004KT 180V330 CAVOK 21/04 Q1018
Loading
Personal Weather Stations






























Interactive Weather Map
Tropical Storm Tracking
New forecast layout! Learn more

10-Day Weather Forecast

Advertisements
Track Severe Weather on mobile